createdAt,value
2023-05-04T00:00:32.829Z,102681.94
2023-05-04T00:03:00.784Z,102684.88
2023-05-04T00:05:28.806Z,102679.53
2023-05-04T00:07:56.706Z,102678.19
2023-05-04T00:10:24.600Z,102676.34
2023-05-04T00:12:53.945Z,102680.19
2023-05-04T00:15:21.884Z,102675.25
2023-05-04T00:17:49.822Z,102668.47
2023-05-04T00:20:18.311Z,102667.78
2023-05-04T00:22:46.197Z,102666.59
2023-05-04T00:25:14.161Z,102658.09
2023-05-04T00:27:42.101Z,102666.22
2023-05-04T00:30:12.410Z,102662.28
2023-05-04T00:32:40.376Z,102655.84
2023-05-04T00:35:09.460Z,102664.25
2023-05-04T00:37:37.352Z,102660.91
2023-05-04T00:40:06.177Z,102655.84
2023-05-04T00:42:34.477Z,102650.28
2023-05-04T00:45:02.353Z,102642.38
2023-05-04T00:47:31.651Z,102649.41
2023-05-04T00:49:59.592Z,102647.31
2023-05-04T00:52:28.416Z,102648.88
2023-05-04T00:54:56.411Z,102645.09
2023-05-04T00:57:24.356Z,102640.09
2023-05-04T00:59:52.300Z,102635.19
2023-05-04T01:02:21.171Z,102634.91
2023-05-04T01:04:50.503Z,102639.38
2023-05-04T01:07:22.721Z,102630.00
2023-05-04T01:09:54.489Z,102634.69
2023-05-04T01:12:25.947Z,102635.06
2023-05-04T01:14:54.962Z,102630.75
2023-05-04T01:17:22.921Z,102621.72
2023-05-04T01:19:54.053Z,102624.56
2023-05-04T01:22:23.850Z,102627.41
2023-05-04T01:24:51.953Z,102629.66
2023-05-04T01:27:23.330Z,102627.88
2023-05-04T01:29:58.299Z,102623.69
2023-05-04T01:32:29.420Z,102623.53
2023-05-04T01:34:57.848Z,102623.53
2023-05-04T01:37:27.323Z,102617.66
2023-05-04T01:39:55.331Z,102623.38
2023-05-04T01:42:23.257Z,102610.56
2023-05-04T01:44:51.823Z,102614.19
2023-05-04T01:47:19.688Z,102618.38
2023-05-04T01:49:47.579Z,102618.19
2023-05-04T01:52:15.821Z,102617.75
2023-05-04T01:54:45.110Z,102617.78
2023-05-04T01:57:13.014Z,102617.47
2023-05-04T01:59:40.949Z,102611.72
2023-05-04T02:02:08.965Z,102608.41
2023-05-04T02:04:37.104Z,102609.75
2023-05-04T02:07:05.049Z,102614.63
2023-05-04T02:09:33.101Z,102607.53
2023-05-04T02:12:02.713Z,102600.41
2023-05-04T02:14:30.608Z,102605.47
2023-05-04T02:16:58.524Z,102603.25
2023-05-04T02:19:26.910Z,102606.03
2023-05-04T02:21:54.836Z,102596.50
2023-05-04T02:24:22.739Z,102586.97
2023-05-04T02:26:50.660Z,102580.53
2023-05-04T02:29:19.978Z,102592.50
2023-05-04T02:31:47.954Z,102592.00
2023-05-04T02:34:15.946Z,102592.38
2023-05-04T02:36:43.970Z,102597.41
2023-05-04T02:39:11.851Z,102594.28
2023-05-04T02:41:39.811Z,102583.22
2023-05-04T02:44:07.721Z,102595.00
2023-05-04T02:46:36.994Z,102593.63
2023-05-04T02:49:04.880Z,102587.00
2023-05-04T02:51:32.823Z,102586.69
2023-05-04T02:54:00.786Z,102583.28
2023-05-04T02:56:28.705Z,102575.63
2023-05-04T02:58:56.604Z,102575.63
2023-05-04T03:01:24.537Z,102571.31
2023-05-04T03:03:53.913Z,102574.94
2023-05-04T03:06:21.788Z,102576.84
2023-05-04T03:08:49.726Z,102578.75
2023-05-04T03:11:17.689Z,102569.72
2023-05-04T03:13:45.556Z,102570.44
2023-05-04T03:16:13.513Z,102571.09
2023-05-04T03:21:28.904Z,102563.16
2023-05-04T03:23:57.041Z,102563.88
2023-05-04T03:26:24.942Z,102570.44
2023-05-04T03:28:52.850Z,102556.44
2023-05-04T03:31:20.817Z,102559.06
2023-05-04T03:33:48.703Z,102555.22
2023-05-04T03:36:16.840Z,102553.88
2023-05-04T03:38:46.788Z,102553.88
2023-05-04T03:41:15.519Z,102552.81
2023-05-04T03:43:43.537Z,102555.56
2023-05-04T03:46:11.610Z,102548.47
2023-05-04T03:48:39.541Z,102548.31
2023-05-04T03:51:07.650Z,102554.19
2023-05-04T03:53:35.892Z,102557.31
2023-05-04T03:56:05.342Z,102555.22
2023-05-04T03:58:33.223Z,102565.94
2023-05-04T04:01:03.372Z,102558.31
2023-05-04T04:03:31.919Z,102554.84
2023-05-04T04:06:00.194Z,102556.78
2023-05-04T04:08:28.151Z,102562.13
2023-05-04T04:10:56.088Z,102552.78
2023-05-04T04:13:25.485Z,102558.69
2023-05-04T04:15:53.448Z,102550.19
2023-05-04T04:18:21.375Z,102551.41
2023-05-04T04:20:49.296Z,102553.16
2023-05-04T04:23:19.306Z,102546.88
2023-05-04T04:25:47.392Z,102545.66
2023-05-04T04:28:16.062Z,102561.91
2023-05-04T04:30:46.291Z,102560.72
2023-05-04T04:33:15.089Z,102561.59
2023-05-04T04:35:42.974Z,102558.13
2023-05-04T04:38:10.989Z,102558.97
2023-05-04T04:40:38.887Z,102556.56
2023-05-04T04:43:06.768Z,102553.78
2023-05-04T04:45:35.756Z,102555.31
2023-05-04T04:48:05.348Z,102564.44
2023-05-04T04:50:33.399Z,102562.38
2023-05-04T04:53:01.294Z,102567.19
2023-05-04T04:55:29.171Z,102562.00
2023-05-04T04:57:57.128Z,102566.31
2023-05-04T05:00:26.209Z,102559.00
2023-05-04T05:02:54.319Z,102561.56
2023-05-04T05:05:23.687Z,102559.13
2023-05-04T05:07:51.559Z,102566.91
2023-05-04T05:10:21.169Z,102566.53
2023-05-04T05:12:49.852Z,102563.56
2023-05-04T05:15:17.935Z,102570.00
2023-05-04T05:17:46.241Z,102565.13
2023-05-04T05:20:15.336Z,102568.03
2023-05-04T05:22:44.662Z,102570.63
2023-05-04T05:25:12.610Z,102568.34
2023-05-04T05:27:40.492Z,102567.44
2023-05-04T05:30:09.191Z,102567.56
2023-05-04T05:32:37.184Z,102568.91
2023-05-04T05:35:05.626Z,102568.56
2023-05-04T05:37:33.858Z,102568.19
2023-05-04T05:40:04.741Z,102563.28
2023-05-04T05:42:32.806Z,102569.81
2023-05-04T05:45:01.839Z,102552.38
2023-05-04T05:47:29.768Z,102561.31
2023-05-04T05:49:57.738Z,102562.31
2023-05-04T05:52:25.739Z,102571.63
2023-05-04T05:54:53.696Z,102574.69
2023-05-04T05:57:22.999Z,102568.00
2023-05-04T05:59:51.015Z,102565.50
2023-05-04T06:02:19.003Z,102558.13
2023-05-04T06:04:46.994Z,102563.63
2023-05-04T06:07:14.978Z,102555.88
2023-05-04T06:09:43.011Z,102556.75
2023-05-04T06:12:13.573Z,102557.31
2023-05-04T06:14:42.854Z,102555.69
2023-05-04T06:17:10.899Z,102547.72
2023-05-04T06:19:39.216Z,102555.59
2023-05-04T06:22:07.698Z,102557.50
2023-05-04T06:24:35.716Z,102559.09
2023-05-04T06:27:03.648Z,102551.66
2023-05-04T06:29:31.538Z,102549.44
2023-05-04T06:32:00.962Z,102546.59
2023-05-04T06:34:29.602Z,102544.78
2023-05-04T06:36:57.803Z,102535.63
2023-05-04T06:39:25.735Z,102539.63
2023-05-04T06:41:55.073Z,102528.97
2023-05-04T06:44:23.052Z,102530.50
2023-05-04T06:46:51.338Z,102534.00
2023-05-04T06:49:20.666Z,102530.69
2023-05-04T06:51:48.580Z,102531.63
2023-05-04T06:54:16.473Z,102529.06
2023-05-04T06:56:44.363Z,102527.44
2023-05-04T06:59:12.303Z,102525.34
2023-05-04T07:01:40.385Z,102522.00
2023-05-04T07:04:08.412Z,102524.63
2023-05-04T07:06:39.485Z,102509.41
2023-05-04T07:09:08.355Z,102507.09
2023-05-04T07:11:36.252Z,102503.50
2023-05-04T07:14:04.163Z,102509.75
2023-05-04T07:16:33.125Z,102510.00
2023-05-04T07:19:01.126Z,102500.13
2023-05-04T07:21:29.816Z,102499.91
2023-05-04T07:23:59.235Z,102510.47
2023-05-04T07:26:27.125Z,102501.47
2023-05-04T07:28:55.116Z,102500.41
2023-05-04T07:31:23.109Z,102500.66
2023-05-04T07:33:51.230Z,102506.44
2023-05-04T07:36:19.202Z,102504.28
2023-05-04T07:38:47.096Z,102497.00
2023-05-04T07:41:16.422Z,102499.13
2023-05-04T07:43:47.329Z,102501.06
2023-05-04T07:46:15.381Z,102495.22
2023-05-04T07:48:43.316Z,102490.06
2023-05-04T07:51:15.114Z,102487.91
2023-05-04T07:53:43.581Z,102487.91
2023-05-04T07:56:12.680Z,102486.59
2023-05-04T07:58:42.348Z,102477.72
2023-05-04T08:01:10.261Z,102477.28
2023-05-04T08:03:38.133Z,102471.00
2023-05-04T08:06:06.177Z,102470.13
2023-05-04T08:08:34.247Z,102470.50
2023-05-04T08:11:15.993Z,102474.75
2023-05-04T08:13:49.334Z,102461.78
2023-05-04T08:16:17.527Z,102454.03
2023-05-04T08:18:45.435Z,102460.47
2023-05-04T08:21:13.380Z,102456.03
2023-05-04T08:23:42.244Z,102451.69
2023-05-04T08:26:10.713Z,102448.38
2023-05-04T08:28:40.197Z,102445.91
2023-05-04T08:31:09.518Z,102443.28
2023-05-04T08:33:37.470Z,102438.56
2023-05-04T08:36:05.788Z,102435.38
2023-05-04T08:38:33.782Z,102438.03
2023-05-04T08:41:03.761Z,102432.75
2023-05-04T08:43:32.173Z,102432.94
2023-05-04T08:46:00.182Z,102438.63
2023-05-04T08:48:29.552Z,102434.19
2023-05-04T08:50:58.978Z,102437.19
2023-05-04T08:53:28.144Z,102437.03
2023-05-04T08:55:56.937Z,102426.09
2023-05-04T08:58:26.193Z,102433.84
2023-05-04T09:00:54.273Z,102427.09
2023-05-04T09:03:22.389Z,102430.81
2023-05-04T09:05:53.066Z,102431.47
2023-05-04T09:08:21.623Z,102425.75
2023-05-04T09:10:49.637Z,102417.84
2023-05-04T09:13:18.019Z,102413.38
2023-05-04T09:15:55.708Z,102415.81
2023-05-04T09:18:24.580Z,102405.31
2023-05-04T09:20:53.891Z,102412.44
2023-05-04T09:23:26.236Z,102420.44
2023-05-04T09:25:54.852Z,102412.50
2023-05-04T09:28:34.368Z,102409.06
2023-05-04T09:31:02.828Z,102410.66
2023-05-04T09:33:32.105Z,102408.63
2023-05-04T09:36:14.274Z,102408.13
2023-05-04T09:38:42.402Z,102419.38
2023-05-04T09:41:10.288Z,102412.63
2023-05-04T09:43:39.518Z,102425.38
2023-05-04T09:46:08.653Z,102404.78
2023-05-04T09:48:37.026Z,102404.41
2023-05-04T09:51:07.347Z,102391.78
2023-05-04T09:53:37.247Z,102395.09
2023-05-04T09:56:11.331Z,102395.81
2023-05-04T09:58:40.221Z,102380.13
2023-05-04T10:01:09.121Z,102388.16
2023-05-04T10:03:37.298Z,102385.16
2023-05-04T10:06:09.102Z,102386.38
2023-05-04T10:08:37.396Z,102380.22
2023-05-04T10:11:07.694Z,102383.69
2023-05-04T10:13:35.595Z,102371.41
2023-05-04T10:16:12.467Z,102370.19
2023-05-04T10:18:51.030Z,102355.34
2023-05-04T10:21:27.220Z,102347.25
2023-05-04T10:24:16.930Z,102360.16
2023-05-04T10:27:00.593Z,102354.53
2023-05-04T10:29:31.036Z,102346.13
2023-05-04T10:31:59.623Z,102348.53
2023-05-04T10:34:29.521Z,102349.53
2023-05-04T10:36:59.181Z,102346.81
2023-05-04T10:39:28.861Z,102348.19
2023-05-04T10:42:01.661Z,102350.06
2023-05-04T10:44:30.191Z,102343.59
2023-05-04T10:46:59.902Z,102338.69
2023-05-04T10:49:28.082Z,102338.69
2023-05-04T10:52:16.240Z,102326.84
2023-05-04T10:54:44.462Z,102319.72
2023-05-04T10:57:16.508Z,102316.50
2023-05-04T10:59:57.167Z,102304.81
2023-05-04T11:02:31.778Z,102312.41
2023-05-04T11:05:04.423Z,102314.63
2023-05-04T11:07:38.227Z,102307.47
2023-05-04T11:10:08.364Z,102309.38
2023-05-04T11:12:36.872Z,102313.66
2023-05-04T11:15:06.858Z,102307.09
2023-05-04T11:17:35.157Z,102300.13
2023-05-04T11:20:03.117Z,102303.69
2023-05-04T11:22:33.306Z,102295.09
2023-05-04T11:25:02.839Z,102292.97
2023-05-04T11:27:31.326Z,102288.25
2023-05-04T11:30:01.033Z,102295.69
2023-05-04T11:32:36.128Z,102288.03
2023-05-04T11:35:05.118Z,102288.00
2023-05-04T11:37:39.580Z,102285.63
2023-05-04T11:40:12.988Z,102272.03
2023-05-04T11:42:41.429Z,102276.94
2023-05-04T11:45:13.098Z,102278.50
2023-05-04T11:47:41.438Z,102270.53
2023-05-04T11:50:12.005Z,102273.84
2023-05-04T11:52:41.110Z,102258.56
2023-05-04T11:55:11.934Z,102251.22
2023-05-04T11:57:40.430Z,102250.72
2023-05-04T12:00:09.961Z,102244.47
2023-05-04T12:02:37.992Z,102241.78
2023-05-04T12:05:13.807Z,102250.84
2023-05-04T12:07:42.246Z,102255.25
2023-05-04T12:10:11.926Z,102249.56
2023-05-04T12:12:39.864Z,102243.91
2023-05-04T12:15:08.995Z,102249.19
2023-05-04T12:17:43.648Z,102237.41
2023-05-04T12:20:12.874Z,102236.28
2023-05-04T12:22:40.775Z,102231.63
2023-05-04T12:25:11.224Z,102222.66
2023-05-04T12:27:41.770Z,102225.59
2023-05-04T12:30:11.155Z,102215.84
2023-05-04T12:32:39.273Z,102223.50
2023-05-04T12:35:08.117Z,102214.88
2023-05-04T12:37:36.421Z,102207.66
2023-05-04T12:40:11.361Z,102202.59
2023-05-04T12:42:46.894Z,102210.50
2023-05-04T12:45:16.131Z,102205.94
2023-05-04T12:47:44.081Z,102208.81
2023-05-04T12:50:12.181Z,102202.69
2023-05-04T12:52:41.292Z,102199.56
2023-05-04T12:55:09.715Z,102198.44
2023-05-04T12:57:37.626Z,102199.78
2023-05-04T13:00:10.023Z,102195.84
2023-05-04T13:02:38.425Z,102186.47
2023-05-04T13:05:08.208Z,102190.66
2023-05-04T13:07:36.468Z,102181.03
2023-05-04T13:10:04.814Z,102179.97
2023-05-04T13:12:33.086Z,102178.28
2023-05-04T13:15:00.986Z,102175.53
2023-05-04T13:17:33.797Z,102168.19
2023-05-04T13:20:04.735Z,102154.00
2023-05-04T13:22:32.913Z,102157.97
2023-05-04T13:25:00.934Z,102145.41
2023-05-04T13:27:29.348Z,102139.19
2023-05-04T13:29:58.452Z,102141.94
2023-05-04T13:32:27.828Z,102136.44
2023-05-04T13:34:57.118Z,102140.78
2023-05-04T13:37:25.038Z,102134.31
2023-05-04T13:39:52.971Z,102137.94
2023-05-04T13:42:21.159Z,102136.69
2023-05-04T13:44:49.119Z,102135.28
2023-05-04T13:47:17.641Z,102127.91
2023-05-04T13:49:45.715Z,102124.44
2023-05-04T13:52:15.004Z,102118.66
2023-05-04T13:54:42.884Z,102134.59
2023-05-04T13:57:10.884Z,102118.09
2023-05-04T13:59:38.802Z,102111.03
2023-05-04T14:02:06.805Z,102113.88
2023-05-04T14:04:35.740Z,102108.19
2023-05-04T14:07:05.450Z,102095.56
2023-05-04T14:09:34.744Z,102108.84
2023-05-04T14:12:02.738Z,102097.66
2023-05-04T14:14:30.675Z,102094.88
2023-05-04T14:16:58.745Z,102085.00
2023-05-04T14:19:28.477Z,102091.16
2023-05-04T14:21:56.422Z,102086.91
2023-05-04T14:24:25.613Z,102082.91
2023-05-04T14:26:54.892Z,102078.31
2023-05-04T14:29:22.832Z,102065.88
2023-05-04T14:31:50.711Z,102058.94
2023-05-04T14:34:18.733Z,102053.59
2023-05-04T14:36:46.664Z,102059.06
2023-05-04T14:39:14.542Z,102063.34
2023-05-04T14:41:42.508Z,102044.13
2023-05-04T14:44:11.899Z,102050.41
2023-05-04T14:46:39.867Z,102054.66
2023-05-04T14:49:08.410Z,102061.78
2023-05-04T14:51:36.839Z,102054.63
2023-05-04T14:54:04.907Z,102043.59
2023-05-04T14:56:32.805Z,102036.53
2023-05-04T14:59:01.723Z,102031.19
2023-05-04T15:01:31.269Z,102034.88
2023-05-04T15:03:59.404Z,102029.75
2023-05-04T15:06:32.654Z,102027.75
2023-05-04T15:09:00.720Z,102025.78
2023-05-04T15:11:29.235Z,102033.72
2023-05-04T15:13:58.913Z,102028.91
2023-05-04T15:16:29.883Z,102028.91
2023-05-04T15:19:00.048Z,102032.03
2023-05-04T15:21:28.349Z,102025.78
2023-05-04T15:23:56.264Z,102018.66
2023-05-04T15:26:24.296Z,102011.28
2023-05-04T15:28:53.964Z,102021.16
2023-05-04T15:31:22.515Z,102014.81
2023-05-04T15:33:50.455Z,102006.22
2023-05-04T15:36:19.754Z,102017.59
2023-05-04T15:38:47.737Z,102012.94
2023-05-04T15:41:15.890Z,102010.66
2023-05-04T15:43:43.778Z,102001.50
2023-05-04T15:46:11.763Z,101994.47
2023-05-04T15:48:39.709Z,101999.78
2023-05-04T15:51:10.856Z,102004.06
2023-05-04T15:53:40.170Z,101997.38
2023-05-04T15:56:08.861Z,101998.34
2023-05-04T15:58:37.323Z,101980.47
2023-05-04T16:01:09.219Z,101986.13
2023-05-04T16:03:38.664Z,101984.50
2023-05-04T16:06:08.941Z,101980.06
2023-05-04T16:08:37.417Z,101970.50
2023-05-04T16:11:07.781Z,101976.19
2023-05-04T16:13:35.879Z,101965.84
2023-05-04T16:16:03.868Z,101973.28
2023-05-04T16:18:31.814Z,101979.50
2023-05-04T16:20:59.743Z,101964.66
2023-05-04T16:23:28.103Z,101963.56
2023-05-04T16:25:56.218Z,101963.22
2023-05-04T16:28:25.516Z,101957.16
2023-05-04T16:30:53.436Z,101952.69
2023-05-04T16:33:21.468Z,101952.06
2023-05-04T16:35:49.412Z,101945.34
2023-05-04T16:38:19.478Z,101942.44
2023-05-04T16:40:47.455Z,101933.13
2023-05-04T16:43:15.396Z,101948.81
2023-05-04T16:45:44.723Z,101939.50
2023-05-04T16:48:12.631Z,101942.16
2023-05-04T16:50:40.511Z,101942.09
2023-05-04T16:53:08.452Z,101933.44
2023-05-04T16:55:37.255Z,101939.56
2023-05-04T16:58:05.145Z,101927.88
2023-05-04T17:00:33.170Z,101926.13
2023-05-04T17:03:02.502Z,101922.28
2023-05-04T17:05:30.420Z,101924.84
2023-05-04T17:07:58.368Z,101922.63
2023-05-04T17:10:26.251Z,101919.22
2023-05-04T17:12:54.653Z,101922.63
2023-05-04T17:15:22.679Z,101929.44
2023-05-04T17:17:50.693Z,101935.09
2023-05-04T17:20:21.696Z,101928.78
2023-05-04T17:22:51.473Z,101929.91
2023-05-04T17:25:19.550Z,101924.22
2023-05-04T17:27:47.802Z,101930.91
2023-05-04T17:30:16.007Z,101932.06
2023-05-04T17:32:43.943Z,101938.88
2023-05-04T17:35:24.066Z,101924.88
2023-05-04T17:37:57.865Z,101936.34
2023-05-04T17:40:26.242Z,101932.16
2023-05-04T17:42:54.355Z,101937.47
2023-05-04T17:45:22.301Z,101939.13
2023-05-04T17:47:51.790Z,101942.94
2023-05-04T17:50:47.344Z,101934.47
2023-05-04T17:53:16.742Z,101942.81
2023-05-04T17:55:44.681Z,101939.75
2023-05-04T17:58:12.598Z,101949.31
2023-05-04T18:00:40.584Z,101945.94
2023-05-04T18:03:08.510Z,101948.97
2023-05-04T18:05:36.537Z,101947.47
2023-05-04T18:08:04.697Z,101955.09
2023-05-04T18:10:34.144Z,101947.84
2023-05-04T18:13:02.135Z,101953.22
2023-05-04T18:15:30.145Z,101957.31
2023-05-04T18:17:58.288Z,101963.69
2023-05-04T18:20:26.530Z,101961.56
2023-05-04T18:22:54.448Z,101959.34
2023-05-04T18:25:22.583Z,101962.63
2023-05-04T18:27:52.266Z,101970.69
2023-05-04T18:30:20.146Z,101965.44
2023-05-04T18:32:48.078Z,101966.72
2023-05-04T18:35:17.203Z,101975.78
2023-05-04T18:37:45.113Z,101978.56
2023-05-04T18:40:14.086Z,101982.91
2023-05-04T18:42:42.024Z,101976.38
2023-05-04T18:45:12.686Z,101980.38
2023-05-04T18:47:40.662Z,101980.31
2023-05-04T18:50:09.894Z,101985.44
2023-05-04T18:52:37.959Z,101993.47
2023-05-04T18:55:06.617Z,101990.38
2023-05-04T18:57:34.579Z,101991.75
2023-05-04T19:00:02.512Z,101988.81
2023-05-04T19:02:33.356Z,102000.41
2023-05-04T19:05:01.316Z,101988.97
2023-05-04T19:07:29.178Z,101995.47
2023-05-04T19:09:57.084Z,101998.25
2023-05-04T19:12:25.208Z,101999.69
2023-05-04T19:14:53.121Z,102009.41
2023-05-04T19:17:21.161Z,102002.13
2023-05-04T19:19:50.444Z,101999.81
2023-05-04T19:22:18.330Z,102006.22
2023-05-04T19:28:15.270Z,102009.69
2023-05-04T19:30:43.212Z,102001.91
2023-05-04T19:33:17.817Z,102001.06
2023-05-04T19:35:47.688Z,102000.09
2023-05-04T19:38:16.014Z,102001.81
2023-05-04T19:40:44.150Z,102003.28
2023-05-04T19:43:12.071Z,102005.59
2023-05-04T19:45:40.961Z,102003.88
2023-05-04T19:48:08.919Z,102009.50
2023-05-04T19:50:36.862Z,102009.38
2023-05-04T19:53:06.150Z,102003.28
2023-05-04T19:55:34.211Z,101999.88
2023-05-04T19:58:02.180Z,102009.66
2023-05-04T20:00:30.220Z,102011.72
2023-05-04T20:02:58.921Z,102008.41
2023-05-04T20:05:26.855Z,101999.25
2023-05-04T20:07:54.798Z,102001.69
2023-05-04T20:10:24.292Z,102005.84
2023-05-04T20:12:52.281Z,101998.34
2023-05-04T20:15:20.368Z,101997.69
2023-05-04T20:17:48.458Z,102000.41
2023-05-04T20:20:20.127Z,102001.94
2023-05-04T20:22:49.136Z,102002.78
2023-05-04T20:25:17.124Z,102000.50
2023-05-04T20:27:48.570Z,101995.56
2023-05-04T20:30:18.033Z,101988.25
2023-05-04T20:32:45.967Z,101988.94
2023-05-04T20:35:13.871Z,101999.88
2023-05-04T20:37:41.819Z,101989.50
2023-05-04T20:40:10.916Z,101993.72
2023-05-04T20:42:39.255Z,102006.75
2023-05-04T20:45:09.965Z,101991.22
2023-05-04T20:47:37.956Z,101986.69
2023-05-04T20:50:07.017Z,101984.75
2023-05-04T20:52:35.127Z,101985.31
2023-05-04T20:55:03.103Z,101975.00
2023-05-04T20:57:31.020Z,101973.47
2023-05-04T20:59:59.154Z,101982.09
2023-05-04T21:02:28.689Z,101976.41
2023-05-04T21:04:56.617Z,101965.59
2023-05-04T21:07:24.539Z,101970.34
2023-05-04T21:09:57.354Z,101982.50
2023-05-04T21:12:25.888Z,101976.59
2023-05-04T21:14:53.789Z,101974.59
2023-05-04T21:17:21.739Z,101974.41
2023-05-04T21:19:51.068Z,101972.56
2023-05-04T21:22:18.991Z,101967.44
2023-05-04T21:24:47.378Z,101966.56
2023-05-04T21:27:15.257Z,101971.22
2023-05-04T21:29:43.177Z,101971.00
2023-05-04T21:32:11.054Z,101979.63
2023-05-04T21:34:38.970Z,101965.97
2023-05-04T21:37:08.274Z,101978.31
2023-05-04T21:39:36.186Z,101978.47
2023-05-04T21:42:04.289Z,101974.34
2023-05-04T21:44:32.564Z,101979.44
2023-05-04T21:47:01.217Z,101983.81
2023-05-04T21:49:29.205Z,101983.69
2023-05-04T21:51:57.088Z,101979.75
2023-05-04T21:54:26.385Z,101979.84
2023-05-04T21:56:54.608Z,101981.56
2023-05-04T21:59:22.500Z,101972.16
2023-05-04T22:01:50.401Z,101978.50
2023-05-04T22:04:18.342Z,101976.91
2023-05-04T22:06:47.492Z,101971.75
2023-05-04T22:09:15.995Z,101975.78
2023-05-04T22:11:45.480Z,101973.44
2023-05-04T22:14:13.427Z,101970.59
2023-05-04T22:16:41.466Z,101965.91
2023-05-04T22:19:09.515Z,101963.75
2023-05-04T22:21:39.762Z,101966.16
2023-05-04T22:24:08.122Z,101967.06
2023-05-04T22:26:36.097Z,101964.31
2023-05-04T22:29:05.449Z,101964.66
2023-05-04T22:31:33.392Z,101971.28
2023-05-04T22:34:01.276Z,101966.78
2023-05-04T22:36:29.170Z,101971.41
2023-05-04T22:38:57.070Z,101965.69
2023-05-04T22:41:25.379Z,101966.19
2023-05-04T22:43:53.282Z,101969.34
2023-05-04T22:46:22.607Z,101970.50
2023-05-04T22:48:50.648Z,101966.19
2023-05-04T22:51:18.556Z,101955.09
2023-05-04T22:53:46.475Z,101957.22
2023-05-04T22:56:14.395Z,101962.81
2023-05-04T22:58:42.544Z,101958.53
2023-05-04T23:01:11.675Z,101959.63
2023-05-04T23:03:41.340Z,101956.81
2023-05-04T23:06:09.836Z,101957.13
2023-05-04T23:08:38.675Z,101956.81
2023-05-04T23:11:06.665Z,101955.47
2023-05-04T23:13:34.803Z,101959.03
2023-05-04T23:16:03.662Z,101963.63
2023-05-04T23:18:33.057Z,101964.25
2023-05-04T23:21:02.501Z,101967.03
2023-05-04T23:23:30.380Z,101958.78
2023-05-04T23:25:58.423Z,101948.84
2023-05-04T23:28:26.351Z,101958.31
2023-05-04T23:30:55.740Z,101956.56
2023-05-04T23:33:23.741Z,101947.84
2023-05-04T23:35:55.396Z,101952.44
2023-05-04T23:38:24.669Z,101954.69
2023-05-04T23:40:53.813Z,101941.53
2023-05-04T23:43:22.706Z,101945.06
2023-05-04T23:45:50.682Z,101941.06
2023-05-04T23:48:18.648Z,101947.47
2023-05-04T23:50:53.366Z,101948.91
2023-05-04T23:53:21.268Z,101949.25
2023-05-04T23:55:57.840Z,101940.19
2023-05-04T23:58:25.866Z,101947.88
